ELP weather

El Paso International Airport
El Paso, Texas, United States

Public forecast

Using degrees Fahrenheit for public forecast. Weather courtesy of forecast.io.

METAR (pilot weather report)

Retrieved 2019/05/26 13:51 UTC (35 minutes ago):

KELP 261351Z 21003KT 10SM FEW110 BKN160 BKN210 23/M02 A2996 RMK AO2 SLP069 T02281022

TAF (pilot weather forecast)

Retrieved 2019/05/26 12:30 UTC (2 hours ago):

TAF KELP 261127Z 2612/2712 29011KT P6SM FEW100 SCT250 FM261600 22015G25KT P6SM FEW100 SCT250 FM262000 24028G40KT 3SM BLDU FEW100 FEW250 FM270500 27015KT P6SM SKC